Time;durP1;ratioP1;P1;durP2;ratioP2;P2;SDS_P1;SDS_P2;PMS_P1;PMS_P2;Temp;Humidity;BMP_temperature;BMP_pressure;BME280_temperature;BME280_humidity;BME280_pressure;Samples;Min_cycle;Max_cycle;Signal;HPM_P1;HPM_P2
2023/04/25 00:00:16;;;;;;;17.75;4.43;;;;;;;9.70;72.89;100711.38;7393783;19;20018;-61
2023/04/25 00:02:43;;;;;;;19.02;4.75;;;;;;;9.72;72.41;100709.44;7393068;19;20023;-62
2023/04/25 00:05:11;;;;;;;18.42;4.50;;;;;;;9.75;72.00;100717.16;7393452;19;20011;-61
2023/04/25 00:07:38;;;;;;;18.70;4.82;;;;;;;9.77;71.52;100719.72;7392970;19;20499;-63
2023/04/25 00:10:06;;;;;;;22.88;5.07;;;;;;;9.76;71.37;100723.28;7392921;19;20025;-62
2023/04/25 00:12:33;;;;;;;19.55;4.70;;;;;;;9.70;70.54;100718.47;7392673;19;20409;-62
2023/04/25 00:15:00;;;;;;;18.73;4.75;;;;;;;9.72;69.96;100719.19;7391412;19;20082;-62
2023/04/25 00:17:27;;;;;;;20.77;4.43;;;;;;;9.55;69.47;100724.84;7394022;19;20023;-63
2023/04/25 00:19:55;;;;;;;23.60;5.00;;;;;;;9.64;69.15;100726.81;7392921;19;20039;-61
2023/04/25 00:22:22;;;;;;;20.42;4.45;;;;;;;9.69;68.69;100737.91;7391962;19;20019;-61
2023/04/25 00:24:50;;;;;;;21.50;4.90;;;;;;;9.59;68.30;100726.31;7392308;19;20082;-60
2023/04/25 00:27:17;;;;;;;17.95;4.20;;;;;;;9.51;68.09;100735.59;7393636;19;20022;-62
2023/04/25 00:29:43;;;;;;;20.10;4.50;;;;;;;9.58;67.65;100735.16;7392443;19;20014;-62
2023/04/25 00:32:10;;;;;;;21.45;4.85;;;;;;;9.65;67.49;100737.28;7391875;19;20090;-63
2023/04/25 00:34:37;;;;;;;22.20;4.72;;;;;;;9.62;67.58;100731.38;7392671;19;20018;-61
2023/04/25 00:37:05;;;;;;;20.45;4.53;;;;;;;9.58;67.36;100736.03;7392910;19;20035;-62
2023/04/25 00:39:32;;;;;;;19.15;4.80;;;;;;;9.51;67.33;100732.97;7392939;19;20081;-62
2023/04/25 00:42:00;;;;;;;24.00;5.30;;;;;;;9.48;66.90;100734.97;7392583;19;20022;-62
2023/04/25 00:44:29;;;;;;;16.73;4.28;;;;;;;9.42;67.03;100733.59;7388961;19;20019;-62
2023/04/25 00:46:56;;;;;;;21.13;4.53;;;;;;;9.46;67.24;100736.88;7392889;19;20011;-62
2023/04/25 00:49:23;;;;;;;19.63;4.53;;;;;;;9.51;66.70;100734.78;7392590;19;20015;-62
2023/04/25 00:51:50;;;;;;;22.42;4.20;;;;;;;9.53;66.62;100741.63;7391687;19;20504;-62
2023/04/25 00:54:17;;;;;;;22.25;4.72;;;;;;;9.52;66.15;100737.28;7388698;19;20528;-62
2023/04/25 00:56:45;;;;;;;17.92;4.68;;;;;;;9.45;66.75;100751.88;7391084;19;20019;-62
2023/04/25 00:59:13;;;;;;;21.73;4.55;;;;;;;9.45;66.26;100737.81;7391772;19;20349;-62
2023/04/25 01:01:41;;;;;;;22.27;4.60;;;;;;;9.39;66.21;100743.56;7391584;19;20381;-61
2023/04/25 01:04:08;;;;;;;21.25;5.30;;;;;;;9.38;66.54;100741.84;7390442;19;20018;-61
2023/04/25 01:06:35;;;;;;;20.17;4.97;;;;;;;9.37;66.63;100751.56;7389792;19;20039;-61
2023/04/25 01:09:04;;;;;;;26.15;5.03;;;;;;;9.38;65.99;100753.25;7393241;19;20023;-62
2023/04/25 01:11:31;;;;;;;24.02;5.38;;;;;;;9.27;66.34;100748.72;7391992;19;20019;-62
2023/04/25 01:13:58;;;;;;;22.55;4.93;;;;;;;9.31;65.28;100752.00;7389922;19;20018;-61
2023/04/25 01:16:26;;;;;;;22.80;4.97;;;;;;;9.32;65.39;100751.06;7390210;19;20022;-62
2023/04/25 01:18:54;;;;;;;21.30;4.97;;;;;;;9.30;65.77;100757.38;7390327;19;20035;-61
2023/04/25 01:21:21;;;;;;;19.38;5.28;;;;;;;9.25;64.80;100755.91;7390338;19;20010;-62
2023/04/25 01:23:49;;;;;;;20.35;5.25;;;;;;;9.24;64.79;100762.16;7390866;19;20018;-59
2023/04/25 01:26:17;;;;;;;18.20;4.47;;;;;;;9.24;64.48;100762.16;7391276;19;20439;-60
2023/04/25 01:28:45;;;;;;;21.08;4.90;;;;;;;9.15;64.56;100757.47;7392456;19;20084;-59
2023/04/25 01:31:13;;;;;;;16.52;4.63;;;;;;;9.20;64.19;100770.38;7393174;19;20459;-59
2023/04/25 01:33:40;;;;;;;22.00;4.90;;;;;;;9.16;64.18;100761.81;7391497;19;20014;-60
2023/04/25 01:36:08;;;;;;;18.88;4.80;;;;;;;9.15;63.79;100759.25;7390873;19;20015;-59
2023/04/25 01:38:35;;;;;;;20.95;4.57;;;;;;;9.15;63.32;100767.19;7392708;19;20014;-59
2023/04/25 01:41:02;;;;;;;16.98;4.47;;;;;;;9.11;63.30;100771.84;7392002;19;20026;-58
2023/04/25 01:43:29;;;;;;;23.58;5.00;;;;;;;9.18;62.87;100780.19;7391570;19;20018;-63
2023/04/25 01:45:57;;;;;;;21.75;5.00;;;;;;;9.21;62.75;100778.19;7390746;19;20014;-58
2023/04/25 01:48:24;;;;;;;20.50;4.82;;;;;;;9.22;62.75;100786.97;7393052;19;20096;-59
2023/04/25 01:50:51;;;;;;;20.92;5.18;;;;;;;9.22;62.24;100793.09;7392620;19;20010;-59
2023/04/25 01:53:18;;;;;;;23.55;4.95;;;;;;;9.26;62.25;100791.09;7390008;19;20035;-61
2023/04/25 01:55:45;;;;;;;22.38;5.22;;;;;;;9.22;62.40;100789.59;7392138;19;20007;-59
2023/04/25 01:58:12;;;;;;;18.42;5.30;;;;;;;9.24;62.43;100787.72;7392601;19;20022;-59
2023/04/25 02:00:40;;;;;;;23.20;5.28;;;;;;;9.24;62.89;100791.22;7390415;19;20031;-59
2023/04/25 02:03:08;;;;;;;22.40;5.30;;;;;;;9.29;62.41;100801.47;7392192;19;20025;-60
2023/04/25 02:05:36;;;;;;;22.75;4.90;;;;;;;9.28;61.54;100805.91;7392076;19;20019;-60
2023/04/25 02:08:05;;;;;;;20.85;5.28;;;;;;;9.19;61.40;100803.03;7400013;19;20015;-60
2023/04/25 02:10:33;;;;;;;20.45;5.03;;;;;;;9.19;61.55;100806.50;7397998;19;20022;-60
2023/04/25 02:13:01;;;;;;;19.73;4.57;;;;;;;9.24;61.44;100803.56;7397489;19;20026;-60
2023/04/25 02:15:28;;;;;;;18.67;4.25;;;;;;;9.18;61.82;100811.91;7399476;19;20015;-59
2023/04/25 02:17:55;;;;;;;21.13;4.85;;;;;;;9.14;62.18;100813.06;7397893;19;20492;-59
2023/04/25 02:20:23;;;;;;;23.17;5.00;;;;;;;9.07;62.56;100819.69;7397781;19;20031;-60
2023/04/25 02:22:50;;;;;;;21.20;5.57;;;;;;;9.05;62.90;100817.16;7398742;19;20014;-59
2023/04/25 02:25:19;;;;;;;20.95;4.97;;;;;;;9.10;62.92;100822.97;7398575;19;20015;-59
2023/04/25 02:27:48;;;;;;;23.98;4.97;;;;;;;9.13;62.59;100819.31;7399247;19;20014;-61
2023/04/25 02:30:15;;;;;;;21.65;5.28;;;;;;;9.01;62.34;100829.72;7397211;19;20039;-61
2023/04/25 02:32:42;;;;;;;21.02;5.15;;;;;;;8.98;62.15;100818.53;7400505;19;20014;-62
2023/04/25 02:35:10;;;;;;;20.60;4.30;;;;;;;8.99;61.88;100825.47;7399028;19;20023;-60
2023/04/25 02:37:38;;;;;;;19.73;5.00;;;;;;;8.99;61.69;100820.19;7397018;19;20018;-61
2023/04/25 02:40:05;;;;;;;21.33;5.30;;;;;;;8.97;61.95;100825.59;7395515;19;20021;-61
2023/04/25 02:42:32;;;;;;;28.17;6.35;;;;;;;8.90;61.79;100811.09;7395252;19;20019;-61
2023/04/25 02:44:59;;;;;;;23.50;6.13;;;;;;;8.90;61.97;100812.91;7397104;19;20037;-64
2023/04/25 02:47:26;;;;;;;26.90;6.50;;;;;;;8.88;62.08;100810.34;7397187;19;20019;-64
2023/04/25 02:49:54;;;;;;;22.02;5.85;;;;;;;8.87;62.02;100811.28;7395517;19;20136;-63
2023/04/25 02:52:21;;;;;;;25.08;5.65;;;;;;;8.77;61.71;100811.03;7396176;19;20089;-63
2023/04/25 02:54:48;;;;;;;22.77;5.15;;;;;;;8.75;61.42;100805.03;7396827;19;20015;-63
2023/04/25 02:57:15;;;;;;;20.95;5.40;;;;;;;8.72;61.46;100799.94;7396877;19;20019;-64
2023/04/25 02:59:41;;;;;;;22.20;4.70;;;;;;;8.69;61.58;100802.78;7396198;19;20035;-64
2023/04/25 03:02:09;;;;;;;21.90;4.25;;;;;;;8.61;62.00;100801.59;7396638;19;20039;-64
2023/04/25 03:04:36;;;;;;;20.90;4.72;;;;;;;8.71;61.60;100800.91;7394799;19;20047;-63
2023/04/25 03:07:03;;;;;;;21.25;4.97;;;;;;;8.71;61.96;100800.06;7397410;19;20025;-63
2023/04/25 03:09:30;;;;;;;15.48;4.30;;;;;;;8.75;62.06;100804.19;7394202;19;20086;-63
2023/04/25 03:11:57;;;;;;;18.67;4.78;;;;;;;8.73;61.87;100800.78;7396621;19;20022;-62
2023/04/25 03:14:24;;;;;;;19.98;4.45;;;;;;;8.74;62.08;100808.63;7393475;19;20014;-63
2023/04/25 03:16:51;;;;;;;17.92;4.07;;;;;;;8.76;62.10;100814.63;7396141;19;20093;-63
2023/04/25 03:19:20;;;;;;;21.50;4.65;;;;;;;8.78;62.03;100814.56;7392435;19;20022;-63
2023/04/25 03:21:47;;;;;;;21.23;3.72;;;;;;;8.82;61.53;100817.84;7395634;19;20094;-63
2023/04/25 03:24:14;;;;;;;19.17;4.25;;;;;;;8.84;61.82;100818.56;7393572;19;20018;-63
2023/04/25 03:26:41;;;;;;;20.83;4.35;;;;;;;8.82;61.57;100825.75;7396296;19;20343;-63
2023/04/25 03:29:08;;;;;;;18.17;4.45;;;;;;;8.81;61.81;100813.47;7395645;19;20089;-63
2023/04/25 03:31:35;;;;;;;23.08;5.47;;;;;;;8.87;61.65;100821.03;7396131;19;20017;-63
2023/04/25 03:34:02;;;;;;;17.23;4.65;;;;;;;8.86;61.61;100819.34;7393484;19;20030;-63
2023/04/25 03:36:29;;;;;;;21.52;5.07;;;;;;;8.85;61.22;100823.75;7393746;19;20347;-63
2023/04/25 03:38:56;;;;;;;21.23;5.57;;;;;;;8.85;60.99;100821.09;7395366;19;20018;-62
2023/04/25 03:41:23;;;;;;;22.60;5.90;;;;;;;8.88;61.06;100822.69;7395548;19;20015;-63
2023/04/25 03:43:50;;;;;;;21.25;6.32;;;;;;;8.75;61.56;100820.03;7392271;19;20488;-62
2023/04/25 03:46:17;;;;;;;22.02;5.97;;;;;;;8.71;61.51;100814.09;7394899;19;20021;-62
2023/04/25 03:48:45;;;;;;;18.88;5.80;;;;;;;8.71;61.05;100819.38;7395132;19;20022;-63
2023/04/25 03:51:11;;;;;;;22.50;5.72;;;;;;;8.72;61.38;100828.97;7393726;19;20042;-63
2023/04/25 03:53:38;;;;;;;19.95;4.88;;;;;;;8.70;60.61;100830.88;7393218;19;20122;-62
2023/04/25 03:56:06;;;;;;;16.98;4.38;;;;;;;8.78;60.44;100825.97;7394101;19;20046;-62
2023/04/25 03:58:33;;;;;;;17.33;4.78;;;;;;;8.81;59.81;100835.44;7393057;19;20031;-62
2023/04/25 04:01:02;;;;;;;20.35;5.05;;;;;;;8.82;59.36;100839.81;7394930;19;20018;-60
2023/04/25 04:03:29;;;;;;;17.40;4.35;;;;;;;8.73;59.17;100843.03;7392908;19;20058;-60
2023/04/25 04:05:57;;;;;;;16.13;4.40;;;;;;;8.71;58.64;100842.28;7394095;19;20086;-60
2023/04/25 04:08:24;;;;;;;19.70;4.25;;;;;;;8.69;58.45;100847.66;7394326;19;20021;-60
2023/04/25 04:10:51;;;;;;;17.90;4.50;;;;;;;8.74;58.33;100850.88;7393381;19;20026;-60
2023/04/25 04:13:18;;;;;;;16.73;4.35;;;;;;;8.57;58.75;100853.72;7392901;19;20078;-59
2023/04/25 04:15:45;;;;;;;18.15;4.28;;;;;;;8.61;58.85;100851.75;7393973;19;20019;-60
2023/04/25 04:18:12;;;;;;;20.63;4.32;;;;;;;8.69;58.68;100867.94;7392675;19;20022;-60
2023/04/25 04:20:39;;;;;;;21.30;4.55;;;;;;;8.60;59.03;100876.44;7393680;19;20190;-60
2023/04/25 04:23:06;;;;;;;17.70;5.03;;;;;;;8.60;58.94;100869.38;7392639;19;20039;-60
2023/04/25 04:25:34;;;;;;;19.95;4.80;;;;;;;8.59;59.23;100875.59;7393908;19;20014;-60
2023/04/25 04:28:01;;;;;;;21.13;4.78;;;;;;;8.61;59.26;100876.34;7393544;19;20414;-60
2023/04/25 04:30:31;;;;;;;16.25;4.60;;;;;;;8.70;58.65;100878.41;7391173;19;20018;-60
2023/04/25 04:32:58;;;;;;;20.63;5.55;;;;;;;8.70;58.67;100881.06;7392700;19;20090;-60
2023/04/25 04:35:25;;;;;;;21.17;4.93;;;;;;;8.67;58.50;100890.97;7393534;19;20336;-60
2023/04/25 04:37:52;;;;;;;17.83;4.88;;;;;;;8.67;58.42;100891.81;7393799;19;20038;-60
2023/04/25 04:40:19;;;;;;;17.70;4.88;;;;;;;8.72;57.96;100894.13;7391259;19;20599;-60
2023/04/25 04:42:46;;;;;;;20.77;4.78;;;;;;;8.75;57.62;100894.78;7393103;19;20078;-59
2023/04/25 04:45:13;;;;;;;17.95;5.10;;;;;;;8.76;57.89;100893.84;7393383;19;20020;-60
2023/04/25 04:47:40;;;;;;;18.88;4.53;;;;;;;8.69;57.26;100902.25;7392932;19;20019;-60
2023/04/25 04:50:09;;;;;;;16.88;4.90;;;;;;;8.72;57.56;100899.41;7392285;19;20026;-60
2023/04/25 04:52:37;;;;;;;16.65;5.10;;;;;;;8.78;57.62;100901.69;7392245;19;20392;-60
2023/04/25 04:55:05;;;;;;;15.27;4.50;;;;;;;8.76;57.46;100903.56;7392525;19;20015;-60
2023/04/25 04:57:32;;;;;;;18.48;4.70;;;;;;;8.70;57.25;100904.81;7392399;19;20484;-59
2023/04/25 05:00:00;;;;;;;14.45;4.03;;;;;;;8.72;56.96;100907.34;7390730;19;20056;-59
2023/04/25 05:02:27;;;;;;;20.73;4.80;;;;;;;8.73;57.38;100909.03;7392395;19;20023;-59
2023/04/25 05:04:56;;;;;;;17.52;4.47;;;;;;;8.77;57.17;100915.81;7391850;19;20483;-60
2023/04/25 05:07:23;;;;;;;14.73;3.85;;;;;;;8.73;57.01;100916.94;7392513;19;20020;-59
2023/04/25 05:09:50;;;;;;;16.75;4.20;;;;;;;8.72;56.99;100920.53;7392227;19;20094;-60
2023/04/25 05:12:17;;;;;;;16.58;3.80;;;;;;;8.72;57.39;100918.75;7390169;19;20478;-60
2023/04/25 05:14:44;;;;;;;20.77;4.03;;;;;;;8.78;57.50;100930.72;7390216;19;20015;-59
2023/04/25 05:17:11;;;;;;;15.98;4.22;;;;;;;8.88;57.23;100925.69;7392208;19;20018;-60
2023/04/25 05:19:39;;;;;;;18.67;4.88;;;;;;;8.89;57.15;100919.47;7392295;19;20362;-59
2023/04/25 05:22:06;;;;;;;15.25;3.83;;;;;;;8.81;56.97;100922.59;7390532;19;20018;-59
2023/04/25 05:24:33;;;;;;;16.77;3.50;;;;;;;8.79;56.62;100917.41;7390485;19;20047;-59
2023/04/25 05:27:00;;;;;;;16.95;4.85;;;;;;;8.77;57.08;100924.56;7392129;19;20074;-60
2023/04/25 05:29:27;;;;;;;14.15;4.05;;;;;;;8.77;57.57;100931.66;7391642;19;20531;-61
2023/04/25 05:31:54;;;;;;;18.70;3.40;;;;;;;8.77;57.93;100940.41;7389951;19;20092;-59
2023/04/25 05:34:21;;;;;;;14.02;3.38;;;;;;;8.82;58.53;100940.16;7388209;19;20006;-61
2023/04/25 05:36:48;;;;;;;15.68;3.78;;;;;;;8.81;58.55;100922.59;7391709;19;20090;-60
2023/04/25 05:39:17;;;;;;;10.82;3.20;;;;;;;8.77;58.92;100943.06;7389718;19;20037;-59
2023/04/25 05:41:44;;;;;;;13.48;3.38;;;;;;;8.76;59.23;100946.66;7390146;19;20023;-60
2023/04/25 05:44:11;;;;;;;12.70;2.97;;;;;;;8.73;59.71;100946.00;7387635;19;20545;-60
2023/04/25 05:46:38;;;;;;;15.73;3.53;;;;;;;8.66;59.43;100953.47;7391239;19;20026;-61
2023/04/25 05:49:05;;;;;;;13.07;3.15;;;;;;;8.61;59.56;100952.03;7388825;19;20022;-60
2023/04/25 05:51:32;;;;;;;15.57;4.05;;;;;;;8.53;59.84;100969.22;7391711;19;20018;-60
2023/04/25 05:53:59;;;;;;;16.92;4.10;;;;;;;8.54;60.07;100964.78;7389435;19;20086;-61
2023/04/25 05:56:26;;;;;;;15.98;3.30;;;;;;;8.42;60.05;100963.72;7390504;19;20014;-61
2023/04/25 05:58:53;;;;;;;15.90;3.33;;;;;;;8.53;60.20;100968.34;7388774;19;20427;-61
2023/04/25 06:01:21;;;;;;;13.88;3.75;;;;;;;8.59;59.63;100968.00;7391561;19;20377;-60
2023/04/25 06:03:48;;;;;;;18.67;3.90;;;;;;;8.66;59.84;100964.03;7389903;19;20035;-60
2023/04/25 06:06:16;;;;;;;13.27;3.15;;;;;;;8.62;59.62;100980.97;7390835;19;20488;-61
2023/04/25 06:08:43;;;;;;;14.85;3.42;;;;;;;8.57;59.90;100976.94;7390270;19;20046;-60
2023/04/25 06:11:11;;;;;;;15.45;3.70;;;;;;;8.60;59.71;100982.03;7391554;19;20039;-60
2023/04/25 06:13:38;;;;;;;16.95;3.60;;;;;;;8.65;59.93;100979.94;7388661;19;20026;-61
2023/04/25 06:16:05;;;;;;;13.63;3.00;;;;;;;8.74;59.78;100974.97;7390020;19;20024;-59
2023/04/25 06:18:32;;;;;;;15.65;3.42;;;;;;;8.84;58.82;100971.72;7390001;19;20014;-59
2023/04/25 06:20:59;;;;;;;15.52;3.70;;;;;;;8.78;58.52;100972.97;7391019;19;20082;-59
2023/04/25 06:23:26;;;;;;;13.60;3.40;;;;;;;8.88;58.17;100974.06;7387269;19;20023;-59
2023/04/25 06:25:53;;;;;;;18.38;4.00;;;;;;;8.98;58.56;100972.56;7389616;19;20011;-61
2023/04/25 06:28:21;;;;;;;15.15;3.17;;;;;;;8.98;58.95;100980.47;7390123;19;20018;-59
2023/04/25 06:30:48;;;;;;;18.00;4.43;;;;;;;9.10;58.01;100978.00;7389932;19;20078;-59
2023/04/25 06:33:15;;;;;;;17.73;4.50;;;;;;;9.17;57.69;100982.78;7388322;19;20081;-59
2023/04/25 06:35:42;;;;;;;17.17;4.30;;;;;;;9.29;57.34;100978.50;7389464;19;20025;-59
2023/04/25 06:38:09;;;;;;;14.15;3.55;;;;;;;9.44;57.01;100987.25;7390295;19;20047;-60
2023/04/25 06:40:36;;;;;;;16.73;3.80;;;;;;;9.53;56.12;100991.91;7389515;19;20373;-59
2023/04/25 06:43:03;;;;;;;16.20;3.42;;;;;;;9.49;56.00;100985.97;7388936;19;20495;-59
2023/04/25 06:45:30;;;;;;;13.63;3.63;;;;;;;9.53;54.91;100990.13;7389249;19;20043;-58
2023/04/25 06:47:57;;;;;;;12.93;2.90;;;;;;;9.49;55.00;101001.84;7389876;19;20017;-57
2023/04/25 06:50:24;;;;;;;19.00;3.22;;;;;;;9.36;54.97;100995.66;7388677;19;20018;-58
2023/04/25 06:52:51;;;;;;;12.52;3.40;;;;;;;9.41;54.65;100996.22;7392365;19;20022;-58
2023/04/25 06:55:18;;;;;;;14.35;2.72;;;;;;;9.47;54.37;101002.91;7394237;19;20391;-58
2023/04/25 06:57:45;;;;;;;10.40;2.67;;;;;;;9.48;53.68;101009.88;7397459;19;20174;-58
2023/04/25 07:00:13;;;;;;;11.15;2.58;;;;;;;9.49;53.87;101009.78;7395942;19;20014;-58
2023/04/25 07:02:42;;;;;;;11.60;2.65;;;;;;;9.52;54.15;101012.22;7395804;19;20019;-60
2023/04/25 07:05:09;;;;;;;12.90;3.42;;;;;;;9.58;53.60;101015.41;7394717;19;20492;-60
2023/04/25 07:07:36;;;;;;;11.70;2.45;;;;;;;9.65;53.85;101011.41;7396750;19;20044;-59
2023/04/25 07:10:03;;;;;;;13.40;2.90;;;;;;;9.55;53.57;101008.53;7394948;19;20014;-60
2023/04/25 07:12:31;;;;;;;10.63;2.70;;;;;;;9.63;53.80;101021.25;7396052;19;20107;-61
2023/04/25 07:14:58;;;;;;;12.93;2.63;;;;;;;9.70;53.00;101019.91;7394264;19;20093;-61
2023/04/25 07:17:25;;;;;;;13.23;2.90;;;;;;;9.64;53.49;101015.84;7396441;19;20014;-61
2023/04/25 07:19:52;;;;;;;11.50;2.60;;;;;;;9.53;53.93;101019.19;7396191;19;20022;-62
2023/04/25 07:22:19;;;;;;;14.77;2.90;;;;;;;9.50;54.23;101014.13;7395669;19;20025;-62
2023/04/25 07:24:48;;;;;;;15.07;2.65;;;;;;;9.46;54.13;101023.22;7393989;19;20014;-59
2023/04/25 07:27:15;;;;;;;10.93;2.72;;;;;;;9.39;53.50;101032.47;7396459;19;20022;-61
2023/04/25 07:29:42;;;;;;;12.27;3.05;;;;;;;9.28;53.25;101037.59;7395963;19;20702;-58
2023/04/25 07:32:11;;;;;;;9.90;2.88;;;;;;;9.28;53.13;101037.59;7395856;19;20412;-59
2023/04/25 07:34:39;;;;;;;12.43;3.45;;;;;;;9.31;53.43;101039.19;7394126;19;20022;-59
2023/04/25 07:37:06;;;;;;;14.23;3.63;;;;;;;9.44;53.33;101034.81;7395803;19;20014;-59
2023/04/25 07:39:33;;;;;;;11.93;3.88;;;;;;;9.47;53.73;101035.47;7393517;19;20026;-59
2023/04/25 07:42:01;;;;;;;13.98;3.40;;;;;;;9.67;53.20;101033.34;7394124;19;20027;-62
2023/04/25 07:44:30;;;;;;;13.57;3.15;;;;;;;9.75;53.12;101026.59;7390769;19;20094;-62
2023/04/25 07:46:57;;;;;;;13.70;3.33;;;;;;;9.76;52.66;101030.91;7395594;19;20043;-63
2023/04/25 07:49:24;;;;;;;14.20;3.25;;;;;;;9.98;51.66;101035.63;7395313;19;20025;-62
2023/04/25 07:51:51;;;;;;;12.00;2.97;;;;;;;10.13;48.95;101041.69;7395514;19;20054;-64
2023/04/25 07:54:18;;;;;;;12.32;3.03;;;;;;;10.21;49.34;101033.25;7393382;19;20039;-60
2023/04/25 07:56:45;;;;;;;10.02;2.42;;;;;;;10.19;49.20;101040.47;7394693;19;20035;-61
2023/04/25 07:59:19;;;;;;;8.82;2.20;;;;;;;10.19;49.08;101046.59;7394833;19;20014;-60
2023/04/25 08:01:46;;;;;;;10.43;2.08;;;;;;;10.06;49.13;101052.81;7393001;19;20039;-59
2023/04/25 08:04:13;;;;;;;8.50;2.40;;;;;;;10.07;48.32;101043.91;7391526;19;20031;-61
2023/04/25 08:06:40;;;;;;;14.65;2.72;;;;;;;10.11;48.42;101048.03;7392924;19;20018;-62
2023/04/25 08:09:09;;;;;;;12.52;2.47;;;;;;;9.99;48.64;101055.00;7395003;19;20070;-62
2023/04/25 08:11:36;;;;;;;13.05;2.42;;;;;;;9.87;49.25;101069.88;7394328;19;20496;-61
2023/04/25 08:14:03;;;;;;;13.30;2.67;;;;;;;9.87;49.91;101064.59;7392317;19;20463;-62
2023/04/25 08:16:30;;;;;;;10.02;2.10;;;;;;;9.66;52.13;101098.59;7393428;19;20078;-62
2023/04/25 08:18:57;;;;;;;12.93;2.50;;;;;;;9.48;55.24;101095.31;7393679;19;20019;-61
2023/04/25 08:21:24;;;;;;;11.27;2.38;;;;;;;9.39;56.61;101088.00;7394078;19;20022;-62
2023/04/25 08:23:51;;;;;;;11.05;2.85;;;;;;;9.60;57.45;101088.41;7392452;19;20047;-61
2023/04/25 08:26:18;;;;;;;13.85;2.75;;;;;;;9.63;56.91;101093.50;7393508;19;20015;-62
2023/04/25 08:28:46;;;;;;;13.73;3.70;;;;;;;9.65;57.20;101090.75;7392488;19;20098;-62
2023/04/25 08:31:13;;;;;;;15.25;4.20;;;;;;;9.78;57.04;101086.38;7393977;19;20015;-62
2023/04/25 08:33:40;;;;;;;13.45;3.55;;;;;;;9.71;56.21;101091.19;7392115;19;20010;-62
2023/04/25 08:36:07;;;;;;;18.13;4.35;;;;;;;9.77;55.55;101103.19;7394209;19;20027;-62
2023/04/25 08:38:34;;;;;;;15.27;5.30;;;;;;;9.84;55.17;101100.97;7393870;19;20026;-61
2023/04/25 08:41:01;;;;;;;13.13;3.55;;;;;;;9.85;53.77;101100.06;7393587;19;20046;-62
2023/04/25 08:43:30;;;;;;;12.70;2.90;;;;;;;9.97;52.71;101109.81;7392055;19;20014;-61
2023/04/25 08:46:00;;;;;;;12.30;2.75;;;;;;;9.97;52.20;101115.13;7392890;19;20053;-61
2023/04/25 08:48:31;;;;;;;9.77;2.50;;;;;;;9.88;51.48;101108.66;7393762;19;20018;-62
2023/04/25 08:50:58;;;;;;;9.82;2.25;;;;;;;9.80;50.94;101137.34;7393464;19;20043;-61
2023/04/25 08:53:27;;;;;;;10.95;2.60;;;;;;;9.71;50.84;101136.16;7392376;19;20039;-61
2023/04/25 08:55:56;;;;;;;10.05;2.25;;;;;;;9.57;52.14;101136.19;7389230;19;20047;-61
2023/04/25 08:58:23;;;;;;;8.45;2.40;;;;;;;9.51;52.31;101126.84;7392771;19;20018;-61
2023/04/25 09:00:52;;;;;;;11.27;2.70;;;;;;;9.52;52.21;101133.84;7392342;19;20116;-61
2023/04/25 09:03:19;;;;;;;10.45;2.67;;;;;;;9.71;52.24;101133.50;7390627;19;20081;-61
2023/04/25 09:05:47;;;;;;;8.73;2.30;;;;;;;10.04;51.32;101128.81;7392966;19;20039;-59
2023/04/25 09:08:14;;;;;;;9.70;2.05;;;;;;;10.39;50.33;101129.16;7392955;19;20039;-59
2023/04/25 09:10:41;;;;;;;11.57;2.22;;;;;;;10.45;50.35;101136.66;7390534;19;20018;-60
2023/04/25 09:13:14;;;;;;;10.20;2.15;;;;;;;10.33;49.94;101148.91;7391900;19;20395;-60
2023/04/25 09:15:55;;;;;;;8.60;2.40;;;;;;;10.28;50.41;101136.94;7387929;19;20039;-61
2023/04/25 09:18:31;;;;;;;9.18;1.85;;;;;;;10.50;49.95;101139.88;7391788;19;20062;-61
2023/04/25 09:21:12;;;;;;;8.73;1.95;;;;;;;10.77;49.66;101146.91;7391458;19;20018;-61
2023/04/25 09:23:46;;;;;;;8.63;1.90;;;;;;;10.70;49.47;101151.75;7389154;19;20439;-61
2023/04/25 09:26:20;;;;;;;11.73;2.88;;;;;;;10.42;50.39;101163.38;7391819;19;20039;-61
2023/04/25 09:28:50;;;;;;;12.60;2.80;;;;;;;10.17;51.65;101172.88;7391279;19;20014;-61
2023/04/25 09:31:25;;;;;;;8.65;2.10;;;;;;;9.98;53.95;101194.38;7391344;19;20491;-61
2023/04/25 09:33:59;;;;;;;7.47;1.42;;;;;;;9.53;57.75;101198.97;7390560;19;20014;-62
2023/04/25 09:36:30;;;;;;;7.18;1.75;;;;;;;9.37;58.38;101210.59;7391477;19;20384;-61
2023/04/25 09:38:59;;;;;;;8.73;1.67;;;;;;;9.45;58.79;101195.97;7391673;19;20014;-61
2023/04/25 09:41:26;;;;;;;6.35;1.60;;;;;;;9.33;59.08;101198.53;7391773;19;20023;-61
2023/04/25 09:43:56;;;;;;;8.05;1.90;;;;;;;9.27;59.19;101200.59;7389934;19;20025;-61
2023/04/25 09:46:25;;;;;;;10.27;1.95;;;;;;;9.41;59.95;101198.91;7391088;19;20107;-62
2023/04/25 09:48:53;;;;;;;8.70;1.95;;;;;;;9.37;59.11;101203.53;7391447;19;20022;-61
2023/04/25 09:51:26;;;;;;;8.82;1.83;;;;;;;9.52;58.71;101202.56;7391447;19;20089;-62
2023/04/25 09:53:53;;;;;;;8.02;1.73;;;;;;;9.46;57.89;101212.66;7389700;19;20014;-61
2023/04/25 09:56:22;;;;;;;8.57;1.55;;;;;;;9.54;56.75;101205.13;7391166;19;20029;-61
2023/04/25 09:58:53;;;;;;;7.68;1.63;;;;;;;9.70;56.19;101205.03;7390826;19;20094;-63
2023/04/25 10:01:21;;;;;;;9.70;1.67;;;;;;;9.94;54.47;101203.47;7391225;19;20094;-63
2023/04/25 10:03:51;;;;;;;6.45;1.50;;;;;;;9.99;52.97;101201.34;7390287;19;20331;-63
2023/04/25 10:06:20;;;;;;;10.27;1.55;;;;;;;10.11;50.73;101199.75;7389241;19;20019;-64
2023/04/25 10:08:50;;;;;;;6.35;1.25;;;;;;;10.36;48.96;101187.59;7390168;19;20014;-63
2023/04/25 10:11:18;;;;;;;9.85;1.40;;;;;;;10.65;47.56;101193.59;7390775;19;20023;-63
2023/04/25 10:13:45;;;;;;;6.20;1.35;;;;;;;10.60;45.36;101191.25;7388670;19;20033;-62
2023/04/25 10:16:13;;;;;;;4.82;1.15;;;;;;;10.64;44.80;101190.09;7386836;19;20014;-62
2023/04/25 10:18:40;;;;;;;4.15;1.25;;;;;;;10.69;45.51;101193.28;7389857;19;20093;-62
2023/04/25 10:21:07;;;;;;;6.13;1.30;;;;;;;10.84;45.88;101201.16;7390180;19;20030;-62
2023/04/25 10:23:36;;;;;;;7.53;1.42;;;;;;;10.95;45.58;101203.91;7388455;19;20082;-63
2023/04/25 10:26:04;;;;;;;9.38;2.38;;;;;;;11.06;44.96;101219.09;7390204;19;20082;-62
2023/04/25 10:28:59;;;;;;;8.77;1.85;;;;;;;11.32;46.19;101209.34;7393822;19;20383;-62
2023/04/25 10:31:27;;;;;;;9.13;2.22;;;;;;;11.14;48.23;101211.44;7397502;19;20022;-62
2023/04/25 10:33:54;;;;;;;10.80;1.75;;;;;;;11.20;48.77;101217.19;7395045;19;20019;-62
2023/04/25 10:36:22;;;;;;;9.73;3.03;;;;;;;11.16;49.28;101213.06;7395026;19;20084;-62
2023/04/25 10:38:51;;;;;;;11.60;2.40;;;;;;;11.09;49.53;101217.06;7394957;19;20471;-63
2023/04/25 10:41:20;;;;;;;9.15;2.22;;;;;;;11.02;48.90;101213.13;7397277;19;20730;-62
2023/04/25 10:43:48;;;;;;;9.27;1.80;;;;;;;11.14;48.62;101216.75;7391452;19;20018;-64
2023/04/25 10:46:18;;;;;;;12.80;1.90;;;;;;;11.14;49.15;101216.75;7397153;19;20037;-62
2023/04/25 10:48:49;;;;;;;8.38;2.13;;;;;;;11.08;48.11;101220.69;7396535;19;20022;-63
2023/04/25 10:51:18;;;;;;;7.68;1.70;;;;;;;11.03;48.48;101227.22;7397381;19;20035;-62
2023/04/25 10:53:46;;;;;;;9.18;1.73;;;;;;;10.96;49.22;101219.72;7394838;19;20438;-59
2023/04/25 10:56:21;;;;;;;7.82;1.40;;;;;;;11.02;49.62;101223.75;7393089;19;20035;-60
2023/04/25 10:58:49;;;;;;;6.03;1.65;;;;;;;11.16;49.84;101226.31;7396047;19;20018;-60
2023/04/25 11:01:21;;;;;;;9.10;1.98;;;;;;;11.52;48.51;101221.19;7396782;19;20026;-62
2023/04/25 11:03:50;;;;;;;7.72;1.80;;;;;;;11.75;47.71;101207.16;7394515;19;20035;-59
2023/04/25 11:06:28;;;;;;;7.22;1.77;;;;;;;11.59;48.65;101214.50;7394844;19;20035;-59
2023/04/25 11:08:55;;;;;;;8.15;1.70;;;;;;;11.24;49.36;101220.47;7395764;19;20014;-60
2023/04/25 11:11:23;;;;;;;8.95;1.80;;;;;;;11.19;50.09;101228.75;7396517;19;20018;-62
2023/04/25 11:13:50;;;;;;;9.98;2.10;;;;;;;10.88;51.77;101229.16;7392500;19;20471;-61
2023/04/25 11:16:17;;;;;;;9.85;1.90;;;;;;;10.81;54.09;101244.59;7391833;19;20018;-60
2023/04/25 11:19:04;;;;;;;10.60;1.88;;;;;;;10.67;55.96;101242.84;7396006;19;20122;-60
2023/04/25 11:21:31;;;;;;;11.15;2.60;;;;;;;10.72;56.15;101240.78;7394147;19;20408;-60
2023/04/25 11:23:59;;;;;;;10.63;2.22;;;;;;;10.68;56.31;101254.28;7392243;19;20469;-60
2023/04/25 11:26:26;;;;;;;7.80;1.88;;;;;;;10.50;56.18;101248.44;7394948;19;20032;-60